Time;durP1;ratioP1;P1;durP2;ratioP2;P2;SDS_P1;SDS_P2;PMS_P1;PMS_P2;Temp;Humidity;BMP_temperature;BMP_pressure;BME280_temperature;BME280_humidity;BME280_pressure;Samples;Min_cycle;Max_cycle;Signal;HPM_P1;HPM_P2
2023/10/22 00:02:11;;;;;;;3.30;1.85;;;9.40;99.90;;;8.89;100.00;96274.50;5051804;28;20476;-38
2023/10/22 00:04:40;;;;;;;3.10;2.00;;;9.30;99.90;;;8.88;100.00;96276.28;5049048;28;20167;-39
2023/10/22 00:07:07;;;;;;;1.88;1.52;;;9.30;99.90;;;8.87;100.00;96285.09;5034297;28;20127;-39
2023/10/22 00:09:32;;;;;;;2.28;1.63;;;9.30;99.90;;;8.79;100.00;96271.44;5046689;28;20043;-38
2023/10/22 00:11:58;;;;;;;2.47;1.77;;;9.30;99.90;;;8.92;100.00;96292.75;5053140;28;20047;-39
2023/10/22 00:14:24;;;;;;;4.65;1.85;;;9.30;99.90;;;8.93;100.00;96292.66;5047984;28;20044;-38
2023/10/22 00:16:49;;;;;;;2.47;1.80;;;9.40;99.90;;;8.95;100.00;96297.84;5032972;28;20115;-38
2023/10/22 00:19:15;;;;;;;2.42;1.65;;;9.40;99.90;;;8.86;100.00;96283.38;5053288;28;20028;-39
2023/10/22 00:21:41;;;;;;;1.98;1.50;;;9.40;99.90;;;8.98;100.00;96301.19;5054485;28;20074;-39
2023/10/22 00:24:07;;;;;;;4.68;1.90;;;9.40;99.90;;;8.97;100.00;96299.50;5053709;28;20029;-38
2023/10/22 00:26:33;;;;;;;2.53;1.80;;;9.40;99.90;;;8.93;100.00;96300.56;5052665;28;20055;-38
2023/10/22 00:28:59;;;;;;;3.15;1.88;;;9.40;99.90;;;8.90;100.00;96298.09;5050531;28;20395;-39
2023/10/22 00:31:25;;;;;;;1.60;1.50;;;9.40;99.90;;;8.88;100.00;96294.69;5038155;28;20083;-40
2023/10/22 00:33:50;;;;;;;1.98;1.55;;;9.30;99.90;;;8.86;100.00;96299.13;5045280;28;20087;-37
2023/10/22 00:36:16;;;;;;;2.58;2.08;;;9.30;99.90;;;8.84;100.00;96297.53;5044135;28;20567;-38
2023/10/22 00:38:42;;;;;;;2.10;1.60;;;9.30;99.90;;;8.83;100.00;96296.69;5052797;28;20027;-39
2023/10/22 00:41:07;;;;;;;4.05;1.98;;;9.30;99.90;;;8.83;100.00;96298.44;5056387;28;20480;-39
2023/10/22 00:43:33;;;;;;;2.75;1.65;;;9.30;99.90;;;8.85;100.00;96302.72;5056446;28;20098;-41
2023/10/22 00:45:59;;;;;;;3.40;1.60;;;9.30;99.90;;;8.83;100.00;96299.31;5050850;28;20462;-41
2023/10/22 00:48:25;;;;;;;3.42;1.70;;;9.30;99.90;;;8.87;100.00;96307.91;5050850;28;20032;-38
2023/10/22 00:50:52;;;;;;;3.72;1.65;;;9.30;99.90;;;8.84;100.00;96303.63;5051528;28;20179;-40
2023/10/22 00:53:20;;;;;;;1.83;1.23;;;9.30;99.90;;;8.85;100.00;96307.97;5027600;28;20025;-39
2023/10/22 00:55:47;;;;;;;2.47;1.45;;;9.30;99.90;;;8.85;100.00;96310.59;5048674;28;20040;-38
2023/10/22 00:58:15;;;;;;;2.88;1.20;;;9.30;99.90;;;8.85;100.00;96309.75;5026148;28;20029;-39
2023/10/22 01:00:41;;;;;;;2.40;1.42;;;9.30;99.90;;;8.86;100.00;96322.81;5030318;28;20028;-39
2023/10/22 01:03:07;;;;;;;3.90;1.70;;;9.30;99.90;;;8.85;100.00;96320.28;5035739;28;20036;-39
2023/10/22 01:05:37;;;;;;;1.42;1.20;;;9.30;99.90;;;8.84;100.00;96324.66;5047760;28;20497;-39
2023/10/22 01:08:06;;;;;;;2.30;1.40;;;9.30;99.90;;;8.85;100.00;96328.16;5047717;28;20060;-39
2023/10/22 01:10:32;;;;;;;3.15;1.20;;;9.30;99.90;;;8.84;100.00;96324.66;5047977;28;20071;-39
2023/10/22 01:12:59;;;;;;;1.65;1.10;;;9.30;99.90;;;8.85;100.00;96330.78;5048673;28;20063;-39
2023/10/22 01:15:26;;;;;;;2.90;1.40;;;9.30;99.90;;;8.80;100.00;96320.47;5044392;28;20051;-39
2023/10/22 01:17:52;;;;;;;2.67;1.30;;;9.30;99.90;;;8.83;100.00;96322.97;5049159;28;20171;-39
2023/10/22 01:20:17;;;;;;;1.95;1.15;;;9.30;99.90;;;8.81;100.00;96331.84;5046987;28;20090;-38
2023/10/22 01:22:43;;;;;;;1.30;1.15;;;9.30;99.90;;;8.81;100.00;96330.09;5048607;28;20036;-39
2023/10/22 01:25:09;;;;;;;4.25;1.30;;;9.20;99.90;;;8.78;100.00;96331.06;5032081;28;20028;-40
2023/10/22 01:27:35;;;;;;;2.40;1.05;;;9.20;99.90;;;8.76;100.00;96325.03;5048727;28;20541;-39
2023/10/22 01:30:02;;;;;;;1.83;1.10;;;9.20;99.90;;;8.73;100.00;96326.94;5043298;28;20079;-41
2023/10/22 01:32:30;;;;;;;2.38;1.20;;;9.20;99.90;;;8.69;100.00;96323.59;5046828;28;20028;-39
2023/10/22 01:35:02;;;;;;;2.70;1.10;;;9.10;99.90;;;8.65;100.00;96324.69;5047410;28;20456;-39
2023/10/22 01:37:27;;;;;;;2.83;0.90;;;9.10;99.90;;;8.55;100.00;96313.72;5046721;28;20489;-39
2023/10/22 01:39:54;;;;;;;2.97;1.00;;;9.10;99.90;;;8.58;100.00;96329.38;5047632;28;20093;-41
2023/10/22 01:42:20;;;;;;;3.38;0.98;;;9.00;99.90;;;8.54;100.00;96327.81;5041564;28;20023;-42
2023/10/22 01:44:46;;;;;;;1.40;1.00;;;9.00;99.90;;;8.49;100.00;96326.28;5049741;28;20032;-40
2023/10/22 01:47:11;;;;;;;1.00;0.75;;;9.00;99.90;;;8.47;100.00;96329.00;5043469;28;20464;-40
2023/10/22 01:49:38;;;;;;;2.55;1.00;;;9.00;99.90;;;8.36;100.00;96316.34;5049876;28;20400;-38
2023/10/22 01:52:04;;;;;;;0.80;0.80;;;8.90;99.90;;;8.41;100.00;96335.34;5048750;28;20033;-39
2023/10/22 01:54:30;;;;;;;1.23;0.93;;;8.90;99.90;;;8.38;100.00;96335.50;5044818;28;20025;-40
2023/10/22 01:56:55;;;;;;;5.68;1.25;;;8.80;99.90;;;8.33;100.00;96334.84;5050780;28;20358;-37
2023/10/22 01:59:21;;;;;;;2.13;1.20;;;8.80;99.90;;;8.32;100.00;96340.16;5043531;28;20087;-38
2023/10/22 02:01:47;;;;;;;1.40;0.90;;;8.80;99.90;;;8.31;100.00;96341.06;5048483;28;20048;-40
2023/10/22 02:04:13;;;;;;;2.75;1.05;;;8.80;99.90;;;8.27;100.00;96340.34;5047511;28;20373;-38
2023/10/22 02:06:38;;;;;;;1.40;0.90;;;8.80;99.90;;;8.27;100.00;96342.16;5055424;28;20036;-38
2023/10/22 02:09:04;;;;;;;1.20;0.80;;;8.80;99.90;;;8.25;100.00;96331.69;5047738;28;20040;-38
2023/10/22 02:11:30;;;;;;;1.02;0.90;;;8.70;99.90;;;8.21;100.00;96344.13;5040021;28;20229;-39
2023/10/22 02:13:56;;;;;;;3.92;1.10;;;8.70;99.90;;;8.20;100.00;96342.44;5048061;28;20497;-39
2023/10/22 02:16:23;;;;;;;1.95;0.80;;;8.70;99.90;;;8.17;100.00;96339.94;5035520;28;20062;-39
2023/10/22 02:18:49;;;;;;;2.13;0.95;;;8.70;99.90;;;8.19;100.00;96348.59;5048566;28;20056;-39
2023/10/22 02:21:15;;;;;;;1.58;0.90;;;8.70;99.90;;;8.20;100.00;96345.06;5044262;28;20488;-39
2023/10/22 02:23:41;;;;;;;1.27;0.90;;;8.70;99.90;;;8.16;100.00;96348.72;5043483;28;20362;-40
2023/10/22 02:26:07;;;;;;;1.08;0.90;;;8.70;99.90;;;8.23;100.00;96357.19;5031081;28;20032;-39
2023/10/22 02:28:33;;;;;;;1.52;0.98;;;8.70;99.90;;;8.25;100.00;96359.75;5049074;28;20147;-40
2023/10/22 02:30:59;;;;;;;1.35;0.80;;;8.70;99.90;;;8.19;100.00;96351.22;5048727;28;20472;-39
2023/10/22 02:33:24;;;;;;;1.65;0.73;;;8.70;99.90;;;8.22;100.00;96363.38;5046929;28;20045;-40
2023/10/22 02:35:51;;;;;;;1.63;1.00;;;8.70;99.90;;;8.22;100.00;96364.22;5049076;28;20028;-40
2023/10/22 02:38:18;;;;;;;1.80;0.90;;;8.70;99.90;;;8.22;100.00;96368.63;5044734;28;20021;-41
2023/10/22 02:40:48;;;;;;;1.15;0.90;;;8.70;99.90;;;8.25;100.00;96363.22;5053040;28;20476;-39
2023/10/22 02:43:14;;;;;;;3.05;1.05;;;8.70;99.90;;;8.25;100.00;96365.84;5044010;28;20082;-40
2023/10/22 02:45:55;;;;;;;1.75;1.10;;;8.70;99.90;;;8.27;100.00;96363.16;5047306;28;20035;-40
2023/10/22 02:48:23;;;;;;;2.13;0.90;;;8.80;99.90;;;8.27;100.00;96371.03;5046328;28;20112;-39
2023/10/22 02:50:49;;;;;;;3.42;1.00;;;8.80;99.90;;;8.26;100.00;96377.22;5042436;28;20154;-40
2023/10/22 02:53:15;;;;;;;2.47;0.90;;;8.70;99.90;;;8.22;100.00;96379.13;5026141;28;20079;-38
2023/10/22 02:55:40;;;;;;;2.53;1.13;;;8.70;99.90;;;8.10;100.00;96358.66;5044770;28;20596;-38
2023/10/22 02:58:06;;;;;;;1.85;1.00;;;8.70;99.90;;;8.17;100.00;96376.69;5040847;28;21275;-39
2023/10/22 03:00:36;;;;;;;3.63;1.02;;;8.70;99.90;;;8.13;100.00;96369.00;5041832;28;20098;-38
2023/10/22 03:03:03;;;;;;;1.95;0.90;;;8.70;99.90;;;8.20;100.00;96379.19;5046936;28;20171;-37
2023/10/22 03:05:33;;;;;;;1.67;0.82;;;8.70;99.90;;;8.23;100.00;96388.69;5039856;28;20487;-39
2023/10/22 03:08:00;;;;;;;1.67;0.90;;;8.70;99.90;;;8.30;100.00;96395.38;5046167;28;20036;-39
2023/10/22 03:10:26;;;;;;;2.88;1.10;;;8.70;99.90;;;8.33;100.00;96397.06;5045031;28;20020;-39
2023/10/22 03:12:52;;;;;;;1.75;1.00;;;8.80;99.90;;;8.39;100.00;96409.91;5041594;28;20443;-38
2023/10/22 03:15:18;;;;;;;1.27;0.98;;;8.90;99.90;;;8.38;100.00;96405.56;5038365;28;20357;-39
2023/10/22 03:17:44;;;;;;;2.95;1.70;;;8.90;99.90;;;8.43;100.00;96410.66;5043610;28;20424;-41
2023/10/22 03:20:10;;;;;;;2.13;1.30;;;8.90;99.90;;;8.43;100.00;96416.75;5047243;28;20044;-39
2023/10/22 03:22:36;;;;;;;2.05;1.33;;;8.90;99.90;;;8.42;100.00;96420.31;5055971;28;20654;-40
2023/10/22 03:25:07;;;;;;;2.33;1.30;;;8.90;99.90;;;8.42;100.00;96428.19;5043943;28;20063;-40
2023/10/22 03:27:34;;;;;;;3.28;1.05;;;8.90;99.90;;;8.46;100.00;96421.03;5045178;28;20037;-39
2023/10/22 03:29:59;;;;;;;2.35;1.27;;;8.90;99.90;;;8.50;100.00;96427.84;5047399;28;20031;-39
2023/10/22 03:32:25;;;;;;;3.28;1.00;;;9.00;99.90;;;8.51;100.00;96424.31;5042458;28;20045;-39
2023/10/22 03:34:51;;;;;;;2.03;0.90;;;9.00;99.90;;;8.52;100.00;96424.22;5042694;28;20468;-40
2023/10/22 03:37:17;;;;;;;1.83;0.60;;;9.00;99.90;;;8.58;100.00;96428.38;5044647;28;20048;-40
2023/10/22 03:39:43;;;;;;;2.03;0.90;;;9.00;99.90;;;8.57;100.00;96432.75;5048964;28;20376;-40
2023/10/22 03:42:08;;;;;;;2.40;1.00;;;9.10;99.90;;;8.56;100.00;96424.94;5041243;28;20044;-39
2023/10/22 03:44:34;;;;;;;2.30;1.10;;;9.10;99.90;;;8.60;100.00;96427.38;5045511;28;20028;-39
2023/10/22 03:47:00;;;;;;;3.88;0.90;;;9.10;99.90;;;8.60;100.00;96430.00;5028067;28;20040;-40
2023/10/22 03:49:25;;;;;;;3.22;0.90;;;9.00;99.90;;;8.58;100.00;96429.22;5043334;28;20033;-39
2023/10/22 03:51:51;;;;;;;1.83;0.80;;;9.10;99.90;;;8.57;100.00;96421.41;5045896;28;20036;-39
2023/10/22 03:54:17;;;;;;;3.22;1.00;;;9.10;99.90;;;8.66;100.00;96431.50;5050440;28;20067;-39
2023/10/22 03:56:42;;;;;;;2.95;0.95;;;9.10;99.90;;;8.66;100.00;96425.41;5039310;28;20033;-40
2023/10/22 03:59:08;;;;;;;2.30;0.70;;;9.10;99.90;;;8.60;100.00;96423.91;5029480;28;20435;-39
2023/10/22 04:01:34;;;;;;;2.45;0.70;;;9.10;99.90;;;8.64;100.00;96437.75;5037619;28;20040;-39
2023/10/22 04:03:59;;;;;;;1.15;0.73;;;9.10;99.90;;;8.60;100.00;96440.53;5043095;28;20373;-39
2023/10/22 04:06:25;;;;;;;1.80;0.80;;;9.10;99.90;;;8.58;100.00;96441.53;5042205;28;20039;-39
2023/10/22 04:08:51;;;;;;;4.80;1.10;;;9.10;99.90;;;8.50;100.00;96426.06;5046931;28;20055;-39
2023/10/22 04:11:20;;;;;;;3.00;0.82;;;9.10;99.90;;;8.62;100.00;96447.50;5044214;28;20025;-42
2023/10/22 04:13:46;;;;;;;2.28;0.85;;;9.10;99.90;;;8.64;100.00;96453.53;5038703;28;20028;-39
2023/10/22 04:16:18;;;;;;;1.73;0.88;;;9.10;99.90;;;8.62;100.00;96450.13;5042202;28;20064;-38
2023/10/22 04:18:43;;;;;;;3.15;1.05;;;9.10;99.90;;;8.61;100.00;96451.88;5048023;28;20032;-38
2023/10/22 04:21:16;;;;;;;4.57;1.15;;;9.10;99.90;;;8.58;100.00;96455.50;5051250;28;20488;-38
2023/10/22 04:23:41;;;;;;;;;;;9.10;99.90;;;8.53;100.00;96448.75;5053464;28;20032;-38
2023/10/22 04:26:14;;;;;;;1.95;1.05;;;9.00;99.90;;;8.52;100.00;96447.88;5049182;28;20014;-38
2023/10/22 04:28:44;;;;;;;7.05;0.93;;;9.00;99.90;;;8.53;100.00;96454.84;5045812;28;20033;-39
2023/10/22 04:31:10;;;;;;;2.80;1.27;;;9.00;99.90;;;8.54;100.00;96456.56;5051852;28;20032;-38
2023/10/22 04:33:36;;;;;;;4.60;1.15;;;9.00;99.90;;;8.60;100.00;96452.81;5040127;28;20024;-38
2023/10/22 04:36:03;;;;;;;2.15;1.13;;;9.00;99.90;;;8.57;100.00;96448.53;5051934;28;20055;-41
2023/10/22 04:38:30;;;;;;;2.55;1.00;;;9.10;99.90;;;8.63;100.00;96457.06;5048163;28;20043;-38
2023/10/22 04:40:56;;;;;;;2.92;1.30;;;9.10;99.90;;;8.64;100.00;96450.91;5052888;28;20055;-38
2023/10/22 04:43:22;;;;;;;3.40;1.08;;;9.10;99.90;;;8.69;100.00;96456.81;5043602;28;20026;-39
2023/10/22 04:45:49;;;;;;;1.40;0.80;;;9.10;99.90;;;8.67;100.00;96463.88;5050233;28;20259;-37
2023/10/22 04:48:15;;;;;;;1.42;0.80;;;9.10;99.90;;;8.67;100.00;96458.63;5057549;28;20059;-38
2023/10/22 04:50:44;;;;;;;4.15;1.00;;;9.10;99.90;;;8.62;100.00;96453.59;5048683;28;20111;-38
2023/10/22 04:53:10;;;;;;;2.63;1.20;;;9.20;99.90;;;8.68;100.00;96465.59;5048410;28;20086;-38
2023/10/22 04:55:36;;;;;;;2.78;1.00;;;9.10;99.90;;;8.67;100.00;96470.03;5038369;28;20032;-38
2023/10/22 04:58:02;;;;;;;3.88;1.10;;;9.10;99.90;;;8.65;100.00;96473.63;5043902;28;20310;-38
2023/10/22 05:00:28;;;;;;;3.00;0.73;;;9.10;99.90;;;8.63;100.00;96478.09;5049775;28;20039;-40
2023/10/22 05:02:54;;;;;;;3.58;0.90;;;9.10;99.90;;;8.59;100.00;96475.59;5043056;28;20705;-39
2023/10/22 05:05:23;;;;;;;2.65;1.10;;;9.10;99.90;;;8.57;100.00;96484.47;5046384;28;20040;-40
2023/10/22 05:07:49;;;;;;;2.47;1.00;;;9.10;99.90;;;8.56;100.00;96491.50;5048235;28;20372;-38
2023/10/22 05:10:16;;;;;;;3.05;0.93;;;9.00;99.90;;;8.55;100.00;96489.78;5053503;28;20459;-40
2023/10/22 05:12:42;;;;;;;2.45;0.85;;;9.00;99.90;;;8.53;100.00;96494.25;5040282;28;20024;-39
2023/10/22 05:15:08;;;;;;;2.17;0.75;;;9.00;99.90;;;8.50;100.00;96497.00;5044252;28;20016;-39
2023/10/22 05:17:34;;;;;;;1.15;0.80;;;9.00;99.90;;;8.49;100.00;96497.97;5049308;28;20381;-39
2023/10/22 05:20:00;;;;;;;2.72;0.70;;;8.90;99.90;;;8.45;100.00;96498.13;5048711;28;20149;-39
2023/10/22 05:22:26;;;;;;;0.98;0.60;;;9.00;99.90;;;8.47;100.00;96505.06;5045952;28;20392;-42
2023/10/22 05:24:52;;;;;;;3.60;1.15;;;8.90;99.90;;;8.42;100.00;96501.75;5032962;28;20574;-39
2023/10/22 05:27:17;;;;;;;3.65;1.42;;;8.90;99.90;;;8.36;100.00;96496.72;5044355;28;20036;-39
2023/10/22 05:29:46;;;;;;;3.40;0.80;;;8.90;99.90;;;8.37;100.00;96508.94;5044762;28;20031;-38
2023/10/22 05:32:14;;;;;;;2.28;0.80;;;8.90;99.90;;;8.31;100.00;96506.56;5049566;28;20036;-38
2023/10/22 05:34:42;;;;;;;5.65;0.80;;;8.80;99.90;;;8.28;100.00;96507.56;5044828;28;20030;-39
2023/10/22 05:37:08;;;;;;;5.28;0.98;;;8.80;99.90;;;8.28;100.00;96507.56;5051689;28;20036;-38
2023/10/22 05:39:35;;;;;;;1.88;0.82;;;8.80;99.90;;;8.27;100.00;96511.09;5043990;28;20500;-39
2023/10/22 05:42:01;;;;;;;4.78;1.42;;;8.70;99.90;;;8.27;100.00;96524.22;5046324;28;20036;-39
2023/10/22 05:44:26;;;;;;;3.90;0.80;;;8.70;99.90;;;8.19;100.00;96505.31;5036223;28;20048;-40
2023/10/22 05:46:52;;;;;;;4.25;1.10;;;8.80;99.90;;;8.25;100.00;96523.44;5039912;28;20032;-39
2023/10/22 05:49:20;;;;;;;3.25;1.00;;;8.70;99.90;;;8.28;100.00;96511.97;5051048;28;20082;-39
2023/10/22 05:51:46;;;;;;;2.88;1.00;;;8.70;99.90;;;8.28;100.00;96520.69;5056055;28;20144;-40
2023/10/22 05:54:11;;;;;;;1.45;0.60;;;8.80;99.90;;;8.27;100.00;96518.13;5043351;28;20485;-41
2023/10/22 05:56:37;;;;;;;2.80;0.70;;;8.80;99.90;;;8.37;100.00;96529.97;5044194;28;20040;-40
2023/10/22 05:59:05;;;;;;;3.65;0.90;;;8.80;99.90;;;8.34;100.00;96544.06;5041853;28;20511;-39
2023/10/22 06:01:30;;;;;;;2.90;1.00;;;8.80;99.90;;;8.34;100.00;96540.59;5044670;28;20033;-38
2023/10/22 06:03:56;;;;;;;3.08;1.00;;;8.80;99.90;;;8.37;100.00;96545.72;5049891;28;20032;-39
2023/10/22 06:06:22;;;;;;;3.78;1.10;;;8.80;99.90;;;8.35;100.00;96543.16;5041723;28;20374;-38
2023/10/22 06:08:48;;;;;;;5.43;1.00;;;8.90;99.90;;;8.36;100.00;96541.38;5038223;28;20248;-39
2023/10/22 06:11:14;;;;;;;1.90;0.80;;;8.90;99.90;;;8.41;100.00;96542.91;5054911;28;20028;-39
2023/10/22 06:13:40;;;;;;;2.47;0.88;;;8.90;99.90;;;8.43;100.00;96529.72;5028740;28;20071;-40
2023/10/22 06:16:07;;;;;;;3.55;0.80;;;9.00;99.90;;;8.46;100.00;96526.97;5052363;28;20401;-40
2023/10/22 06:18:33;;;;;;;4.20;0.57;;;9.00;99.90;;;8.52;100.00;96528.50;5044802;28;20044;-39
2023/10/22 06:20:59;;;;;;;6.72;1.02;;;9.10;99.90;;;8.67;100.00;96550.63;5039742;28;20400;-38
2023/10/22 06:23:24;;;;;;;2.95;0.80;;;9.10;99.90;;;8.69;100.00;96559.31;5043131;28;20401;-40
2023/10/22 06:25:50;;;;;;;2.40;0.63;;;9.20;99.90;;;8.66;100.00;96547.16;5046180;28;20079;-38
2023/10/22 06:28:16;;;;;;;2.88;0.63;;;9.20;99.90;;;8.75;100.00;96559.91;5044182;28;20065;-39
2023/10/22 06:30:42;;;;;;;7.05;1.02;;;9.30;99.90;;;8.80;100.00;96567.59;5047528;28;20029;-41
2023/10/22 06:33:08;;;;;;;4.90;0.88;;;9.30;99.90;;;8.83;100.00;96566.59;5043727;28;20519;-39
2023/10/22 06:35:33;;;;;;;2.55;0.80;;;9.30;99.90;;;8.85;100.00;96575.28;5043196;28;20060;-38
2023/10/22 06:37:59;;;;;;;3.40;0.93;;;9.30;99.90;;;8.89;100.00;96574.22;5051997;28;20032;-39
2023/10/22 06:40:25;;;;;;;3.60;1.00;;;9.40;99.90;;;8.93;100.00;96581.91;5042114;28;20045;-39
2023/10/22 06:42:51;;;;;;;7.38;0.80;;;9.40;99.90;;;8.97;100.00;96591.38;5041808;28;20040;-39
2023/10/22 06:45:17;;;;;;;3.35;0.95;;;9.40;99.90;;;8.98;100.00;96595.72;5051044;28;20059;-39
2023/10/22 06:47:43;;;;;;;2.53;0.93;;;9.50;99.90;;;9.01;100.00;96602.63;5043064;28;20239;-38
2023/10/22 06:50:11;;;;;;;2.28;0.80;;;9.50;99.90;;;9.09;100.00;96597.03;5044090;28;21676;-37
2023/10/22 06:52:38;;;;;;;2.78;0.75;;;9.60;99.90;;;9.05;100.00;96582.31;5039868;28;20070;-38
2023/10/22 06:55:05;;;;;;;3.20;0.70;;;9.60;99.90;;;9.14;100.00;96602.94;5050445;28;20491;-37
2023/10/22 06:57:31;;;;;;;4.78;0.60;;;9.60;99.90;;;9.16;100.00;96598.47;5026395;28;20036;-37
2023/10/22 06:59:58;;;;;;;3.58;0.90;;;9.70;99.90;;;9.19;100.00;96606.22;5050610;28;20131;-37
2023/10/22 07:02:25;;;;;;;2.83;0.68;;;9.70;99.90;;;9.24;100.00;96609.53;5043630;28;20150;-37
2023/10/22 07:04:52;;;;;;;3.65;0.70;;;9.70;99.90;;;9.23;100.00;96599.91;5041016;28;20650;-37
2023/10/22 07:07:18;;;;;;;2.60;0.70;;;9.80;99.90;;;9.35;100.00;96609.88;5047924;28;20051;-37
2023/10/22 07:09:44;;;;;;;1.95;0.65;;;9.90;99.90;;;9.36;100.00;96606.31;5042191;28;20878;-37
2023/10/22 07:12:10;;;;;;;4.65;0.80;;;9.90;99.90;;;9.51;100.00;96607.44;5049726;28;20036;-37
2023/10/22 07:14:36;;;;;;;3.72;0.80;;;10.00;99.90;;;9.62;100.00;96617.47;5031442;28;20076;-37
2023/10/22 07:17:02;;;;;;;6.38;1.00;;;10.10;99.90;;;9.66;100.00;96616.41;5017975;28;20064;-37
2023/10/22 07:19:28;;;;;;;3.83;0.80;;;10.20;99.90;;;9.74;100.00;96621.28;5041361;28;20037;-37
2023/10/22 07:21:54;;;;;;;6.10;0.93;;;10.20;99.90;;;9.81;100.00;96621.88;5044149;28;20037;-37
2023/10/22 07:24:20;;;;;;;4.90;0.90;;;10.30;99.90;;;9.75;100.00;96594.06;5048620;28;20054;-37
2023/10/22 07:26:45;;;;;;;3.17;0.80;;;10.40;99.90;;;9.94;100.00;96617.72;5047788;28;20240;-37
2023/10/22 07:29:12;;;;;;;3.00;0.80;;;10.50;99.90;;;10.03;100.00;96619.97;5051801;28;20037;-37
2023/10/22 07:31:38;;;;;;;2.47;0.80;;;10.50;99.90;;;10.08;100.00;96635.53;5049396;28;20041;-37
2023/10/22 07:34:04;;;;;;;2.95;0.90;;;10.60;99.90;;;10.07;100.00;96628.56;5053058;28;20049;-37
2023/10/22 07:36:30;;;;;;;4.25;0.88;;;10.60;99.90;;;10.22;100.00;96643.63;5038846;28;20503;-37
2023/10/22 07:38:56;;;;;;;2.90;0.88;;;10.70;99.90;;;10.30;100.00;96645.91;5049157;28;20040;-37
2023/10/22 07:41:22;;;;;;;2.83;0.73;;;10.80;99.90;;;10.37;100.00;96643.88;5039077;28;20036;-38
2023/10/22 07:43:48;;;;;;;4.75;0.77;;;10.90;99.90;;;10.40;100.00;96634.03;5040568;28;20028;-37
2023/10/22 07:46:15;;;;;;;2.38;0.90;;;10.90;99.90;;;10.48;100.00;96639.78;5034529;28;20503;-37
2023/10/22 07:48:42;;;;;;;1.40;0.50;;;11.00;99.90;;;10.55;100.00;96642.13;5055960;28;20048;-37
2023/10/22 07:51:12;;;;;;;3.40;0.80;;;11.10;99.90;;;10.64;100.00;96652.22;5049142;28;20029;-38
2023/10/22 07:53:38;;;;;;;5.82;0.98;;;11.20;99.90;;;10.72;100.00;96657.13;5051205;28;20047;-37
2023/10/22 07:56:05;;;;;;;3.50;1.00;;;11.20;99.90;;;10.74;100.00;96666.66;5051708;28;20029;-37
2023/10/22 07:58:32;;;;;;;2.80;0.90;;;11.30;99.90;;;10.75;100.00;96670.13;5055729;28;20044;-37
2023/10/22 08:00:58;;;;;;;1.60;0.63;;;11.30;99.90;;;10.80;100.00;96669.00;5048815;28;20040;-37
2023/10/22 08:03:23;;;;;;;2.78;0.73;;;11.30;99.90;;;10.84;100.00;96667.91;5057029;28;20020;-37
2023/10/22 08:05:49;;;;;;;2.92;0.80;;;11.40;99.90;;;10.93;100.00;96676.28;5055167;28;20032;-37
2023/10/22 08:08:15;;;;;;;4.05;0.77;;;11.40;99.90;;;10.98;100.00;96675.16;5049766;28;20032;-37
2023/10/22 08:10:41;;;;;;;1.23;0.57;;;11.40;99.90;;;11.03;100.00;96677.53;5046046;28;20028;-37
2023/10/22 08:13:06;;;;;;;5.53;0.70;;;11.50;99.90;;;11.07;100.00;96679.97;5048031;28;20112;-37
2023/10/22 08:15:34;;;;;;;3.22;0.80;;;11.60;99.90;;;11.08;100.00;96671.09;5050388;28;20473;-37
2023/10/22 08:18:00;;;;;;;2.38;0.68;;;11.60;99.90;;;11.19;100.00;96680.25;5045813;28;20028;-37
2023/10/22 08:20:25;;;;;;;4.13;0.77;;;11.70;99.90;;;11.29;100.00;96676.22;5055582;28;20376;-38
2023/10/22 08:22:51;;;;;;;4.32;0.80;;;11.80;99.90;;;11.30;100.00;96675.28;5044417;28;20036;-37
2023/10/22 08:25:17;;;;;;;2.42;0.80;;;11.80;99.90;;;11.36;100.00;96674.09;5052673;28;20392;-38
2023/10/22 08:27:42;;;;;;;4.57;1.00;;;11.80;99.90;;;11.42;100.00;96682.56;5046656;28;20159;-38
2023/10/22 08:30:09;;;;;;;1.85;0.85;;;11.90;99.90;;;11.46;100.00;96684.09;5057910;28;20028;-38
2023/10/22 08:32:35;;;;;;;1.90;0.77;;;12.00;99.90;;;11.54;100.00;96690.78;5047331;28;20036;-38
2023/10/22 08:35:02;;;;;;;2.05;0.70;;;12.00;99.90;;;11.62;100.00;96696.53;5052005;28;20060;-37
2023/10/22 08:37:28;;;;;;;3.28;1.00;;;12.10;99.90;;;11.64;100.00;96692.84;5036714;28;20047;-38
2023/10/22 08:39:55;;;;;;;3.85;0.82;;;12.20;99.90;;;11.71;100.00;96698.69;5055341;28;20032;-38
2023/10/22 08:42:23;;;;;;;2.25;0.82;;;12.20;99.90;;;11.82;100.00;96711.31;5051207;28;20043;-37
2023/10/22 08:44:49;;;;;;;4.10;0.98;;;12.30;99.90;;;11.91;100.00;96705.56;5049935;28;20032;-38
2023/10/22 08:47:16;;;;;;;2.15;0.60;;;12.40;99.90;;;12.05;100.00;96714.56;5050388;28;20710;-37
2023/10/22 08:49:42;;;;;;;3.22;0.88;;;12.50;99.90;;;12.10;100.00;96699.31;5051578;28;20028;-38
2023/10/22 08:52:11;;;;;;;4.13;0.82;;;12.60;99.90;;;12.18;100.00;96699.75;5032867;28;20127;-38
2023/10/22 08:54:37;;;;;;;3.47;0.88;;;12.70;99.90;;;12.32;100.00;96715.69;5051616;28;21603;-37
2023/10/22 08:57:03;;;;;;;3.28;0.70;;;12.80;99.90;;;12.36;100.00;96722.56;5044113;28;20120;-38
2023/10/22 08:59:30;;;;;;;5.65;0.77;;;12.80;99.90;;;12.44;100.00;96721.28;5039930;28;20106;-38
2023/10/22 09:01:56;;;;;;;3.03;0.60;;;12.80;99.90;;;12.48;100.00;96714.88;5029366;28;20301;-38
2023/10/22 09:04:23;;;;;;;5.18;1.02;;;12.90;99.90;;;12.47;100.00;96706.09;5052742;28;20029;-37
2023/10/22 09:06:53;;;;;;;3.80;1.52;;;13.00;99.90;;;12.58;100.00;96718.72;5047381;28;20031;-37
2023/10/22 09:09:45;;;;;;;4.22;1.10;;;13.00;99.90;;;12.60;100.00;96732.72;5037035;28;20028;-38
2023/10/22 09:12:13;;;;;;;3.25;0.93;;;13.00;99.90;;;12.65;100.00;96727.16;5021782;28;20065;-37
2023/10/22 09:14:42;;;;;;;2.53;0.77;;;13.10;99.90;;;12.70;100.00;96728.59;5032259;28;20062;-37
2023/10/22 09:17:19;;;;;;;3.63;0.75;;;13.10;99.90;;;12.77;100.00;96729.09;5041732;28;20029;-37
2023/10/22 09:19:49;;;;;;;5.60;1.15;;;13.20;99.90;;;12.80;100.00;96731.59;5052081;28;20033;-37
2023/10/22 09:22:26;;;;;;;4.78;0.88;;;13.20;99.90;;;12.87;100.00;96721.50;5039191;28;20703;-37
2023/10/22 09:24:56;;;;;;;5.05;0.82;;;13.20;99.90;;;12.91;100.00;96730.97;5054176;28;20032;-39
2023/10/22 09:27:27;;;;;;;2.67;0.80;;;13.30;99.90;;;12.91;100.00;96725.69;5040166;28;20028;-38
2023/10/22 09:29:55;;;;;;;3.80;0.93;;;13.40;99.90;;;12.99;99.65;96736.66;5014426;28;20052;-39
2023/10/22 09:32:22;;;;;;;4.05;0.95;;;13.40;99.90;;;13.03;97.80;96734.69;5044838;28;20054;-38
2023/10/22 09:34:47;;;;;;;3.20;0.80;;;13.40;99.90;;;12.95;100.00;96722.75;5045461;28;20473;-38
2023/10/22 09:37:13;;;;;;;3.45;1.13;;;13.40;99.90;;;13.07;99.95;96730.94;5052690;28;20218;-38
2023/10/22 09:39:42;;;;;;;2.03;0.43;;;13.50;99.90;;;13.10;99.98;96721.03;5051355;28;20033;-39
2023/10/22 09:42:13;;;;;;;5.85;0.82;;;13.50;99.90;;;13.25;99.57;96726.38;5039083;28;20404;-39
2023/10/22 09:44:46;;;;;;;3.60;0.93;;;13.60;99.90;;;13.29;100.00;96722.59;5045855;28;20127;-38
2023/10/22 09:47:20;;;;;;;2.75;1.00;;;13.60;99.90;;;13.34;100.00;96716.13;5039775;28;20037;-39
2023/10/22 09:49:57;;;;;;;3.53;0.70;;;13.70;99.90;;;13.40;100.00;96725.50;5036952;28;20020;-38
2023/10/22 09:52:23;;;;;;;8.18;1.17;;;13.80;99.90;;;13.40;99.91;96727.31;5032402;28;20032;-39
2023/10/22 09:54:54;;;;;;;4.13;1.10;;;13.80;99.90;;;13.49;99.16;96740.00;5043515;28;20033;-38
2023/10/22 09:57:29;;;;;;;4.60;1.08;;;13.80;99.90;;;13.41;97.40;96729.88;5052048;28;20039;-38
2023/10/22 10:00:08;;;;;;;4.78;0.70;;;13.80;99.90;;;13.37;97.75;96731.00;5030049;28;20047;-40
2023/10/22 10:02:35;;;;;;;2.58;0.82;;;13.80;99.90;;;13.41;94.38;96737.81;5038308;28;20048;-38
2023/10/22 10:05:02;;;;;;;2.80;0.80;;;13.80;99.90;;;13.45;96.57;96741.97;5045592;28;20425;-38
2023/10/22 10:07:30;;;;;;;3.83;0.90;;;13.80;99.90;;;13.51;93.33;96741.63;5025190;28;20040;-38
2023/10/22 10:09:56;;;;;;;6.20;0.90;;;13.90;99.90;;;13.55;93.13;96747.59;5047134;28;20120;-39
2023/10/22 10:12:24;;;;;;;2.97;0.70;;;13.90;99.90;;;13.67;92.58;96746.00;5033499;28;20059;-38
2023/10/22 10:14:50;;;;;;;3.80;0.85;;;14.00;99.90;;;13.72;91.09;96739.47;5013749;28;20074;-38
2023/10/22 10:17:20;;;;;;;3.42;0.77;;;14.00;99.90;;;13.61;92.39;96739.28;5050380;28;20040;-38
2023/10/22 10:19:47;;;;;;;3.20;0.80;;;14.00;99.90;;;13.59;92.25;96745.63;5046575;28;20898;-39
2023/10/22 10:22:39;;;;;;;6.28;1.05;;;14.00;99.90;;;13.54;94.85;96746.72;5037321;28;20044;-38